Riverdale, MD

8:07 AM EST on February 10, 2016 (GMT -0500)
College Park

Weather History for KCGS - April, 2014

Change the Weather History Date:

Sunday, April 6, 2014

  Actual Average Record
Temperature  
Mean Temperature 46 °F -  
Max Temperature 60 °F 62 °F 83 °F (1985)
Min Temperature 32 °F 40 °F 29 °F (1963)
Degree Days  
Heating Degree Days 19    
Moisture  
Dew Point 24 °F    
Average Humidity 46    
Maximum Humidity 93    
Minimum Humidity 19    
Precipitation  
Precipitation 0.00 in - - ()
Sea Level Pressure  
Sea Level Pressure 30.21 in    
Wind  
Wind Speed 3 mph (ENE)    
Max Wind Speed 9 mph    
Max Gust Speed -    
Visibility 10 miles    
Events      
Averages and records for this station are not official NWS values.
T = Trace of Precipitation, MM = Missing Value Source: NWS Daily Summary

Daily Weather History Graph

Daily Weather History Graph

Search for Another Location

Airport or City:

Trip Planner

Search our weather history database for the weather conditions in past years. The results will help you decide how hot, cold, wet, or windy it might be!

Date:

Astronomy

Apr. 06, 2014 Rise Set
Actual Time 6:44 AM EDT 7:36 PM EDT
Civil Twilight 6:17 AM EDT 8:03 PM EDT
Nautical Twilight 5:45 AM EDT 8:35 PM EDT
Astronomical Twilight 5:12 AM EDT 9:08 PM EDT
Moon 11:45 AM EDT (4/6) 1:28 AM EDT (4/6)
Length of Visible Light 13h 45m
Length of Day
12h 51m
Waxing Crescent, 43% of the Moon is Illuminated
Apr 6
Waxing Crescent
Apr 7
First Quarter
Apr 15
Full
Apr 22
Last Quarter
Apr 29
New

Hourly Weather History & Observations

Time (EDT) Temp. Windchill Dew Point Humidity Pressure Visibility Wind Dir Wind Speed Gust Speed Precip Events Conditions
12:05 AM 44.6 °F 41.4 °F 26.6 °F 49% 30.17 in 10.0 mi NNW 5.8 mph - N/A   Clear
12:25 AM 44.6 °F 42.2 °F 26.6 °F 49% 30.17 in 10.0 mi NNW 4.6 mph - N/A   Clear
12:45 AM 42.8 °F - 26.6 °F 53% 30.17 in 10.0 mi Calm Calm - N/A   Clear
1:05 AM 42.8 °F 41.1 °F 26.6 °F 53% 30.17 in 10.0 mi NNW 3.5 mph - N/A   Clear
1:25 AM 42.8 °F 40.1 °F 26.6 °F 53% 30.17 in 10.0 mi NW 4.6 mph - N/A   Clear
1:45 AM 41.0 °F - 26.6 °F 57% 30.17 in 10.0 mi Calm Calm - N/A   Clear
2:05 AM 41.0 °F 38.0 °F 26.6 °F 57% 30.17 in 10.0 mi NNW 4.6 mph - N/A   Clear
2:25 AM 41.0 °F - 28.4 °F 61% 30.17 in 10.0 mi Calm Calm - N/A   Clear
2:45 AM 37.4 °F - 28.4 °F 70% 30.17 in 10.0 mi Calm Calm - N/A   Clear
3:05 AM 35.6 °F - 28.4 °F 75% 30.17 in 10.0 mi Calm Calm - N/A   Clear
3:25 AM 35.6 °F - 30.2 °F 81% 30.18 in 10.0 mi Calm Calm - N/A   Clear
3:45 AM 35.6 °F - 28.4 °F 75% 30.19 in 10.0 mi Calm Calm - N/A   Clear
4:05 AM 33.8 °F - 30.2 °F 87% 30.18 in 10.0 mi Calm Calm - N/A   Clear
4:25 AM 33.8 °F - 28.4 °F 81% 30.19 in 10.0 mi Calm Calm - N/A   Clear
4:45 AM 32.0 °F - 28.4 °F 87% 30.19 in 10.0 mi Calm Calm - N/A   Clear
5:05 AM 32.0 °F - 30.2 °F 93% 30.20 in 10.0 mi Calm Calm - N/A   Clear
5:25 AM 32.0 °F - 28.4 °F 87% 30.20 in 10.0 mi Calm Calm - N/A   Clear
5:45 AM 32.0 °F - 28.4 °F 87% 30.21 in 10.0 mi Calm Calm - N/A   Clear
6:05 AM 32.0 °F - 28.4 °F 87% 30.22 in 10.0 mi Calm Calm - N/A   Clear
6:25 AM 32.0 °F - 28.4 °F 87% 30.23 in 10.0 mi Calm Calm - N/A   Clear
6:45 AM 32.0 °F - 28.4 °F 87% 30.24 in 10.0 mi Calm Calm - N/A   Clear
7:45 AM 32.0 °F - 28.4 °F 87% 30.26 in 10.0 mi Calm Calm - N/A   Clear
8:05 AM 35.6 °F - 30.2 °F 81% 30.27 in 10.0 mi Calm Calm - N/A   Clear
8:25 AM 39.2 °F - 30.2 °F 70% 30.27 in 10.0 mi Calm Calm - N/A   Clear
8:45 AM 42.8 °F 40.1 °F 26.6 °F 53% 30.27 in 10.0 mi NW 4.6 mph - N/A   Clear
9:05 AM 44.6 °F 43.1 °F 26.6 °F 49% 30.27 in 10.0 mi NE 3.5 mph - N/A   Clear
9:25 AM 44.6 °F 41.4 °F 26.6 °F 49% 30.27 in 10.0 mi NE 5.8 mph - N/A   Clear
9:45 AM 44.6 °F 41.4 °F 23.0 °F 43% 30.27 in 10.0 mi North 5.8 mph - N/A   Clear
10:05 AM 46.4 °F 41.9 °F 23.0 °F 40% 30.26 in 10.0 mi North 9.2 mph - N/A   Clear
10:25 AM 46.4 °F 41.9 °F 23.0 °F 40% 30.26 in 10.0 mi North 9.2 mph - N/A   Clear
10:45 AM 48.2 °F - 23.0 °F 37% 30.26 in 10.0 mi North 4.6 mph - N/A   Clear
11:05 AM 50.0 °F - 23.0 °F 35% 30.27 in 10.0 mi NNE 3.5 mph - N/A   Clear
11:25 AM 50.0 °F - 21.2 °F 32% 30.26 in 10.0 mi Calm Calm - N/A   Clear
11:45 AM 50.0 °F - 19.4 °F 30% 30.26 in 10.0 mi Calm Calm - N/A   Clear
12:05 PM 51.8 °F - 19.4 °F 28% 30.26 in 10.0 mi North 3.5 mph - N/A   Clear
12:25 PM 51.8 °F - 17.6 °F 26% 30.26 in 10.0 mi Calm Calm - N/A   Clear
12:45 PM 53.6 °F - 17.6 °F 24% 30.26 in 10.0 mi NNW 3.5 mph - N/A   Clear
1:05 PM 53.6 °F - 17.6 °F 24% 30.25 in 10.0 mi Calm Calm - N/A   Clear
1:25 PM 55.4 °F - 17.6 °F 23% 30.24 in 10.0 mi South 3.5 mph - N/A   Clear
1:45 PM 55.4 °F - 15.8 °F 21% 30.23 in 10.0 mi SE 5.8 mph - N/A   Clear
2:05 PM 55.4 °F - 17.6 °F 23% 30.22 in 10.0 mi Calm Calm - N/A   Clear
2:25 PM 57.2 °F - 17.6 °F 21% 30.21 in 10.0 mi SW 4.6 mph - N/A   Clear
2:45 PM 59.0 °F - 17.6 °F 20% 30.20 in 10.0 mi ESE 4.6 mph - N/A   Clear
3:05 PM 59.0 °F - 17.6 °F 20% 30.19 in 10.0 mi Calm Calm - N/A   Clear
3:25 PM 59.0 °F - 15.8 °F 19% 30.18 in 10.0 mi Calm Calm - N/A   Clear
3:45 PM 59.0 °F - 15.8 °F 19% 30.17 in 10.0 mi Calm Calm - N/A   Clear
4:05 PM 59.0 °F - 17.6 °F 20% 30.15 in 10.0 mi Calm Calm - N/A   Clear
4:25 PM 59.0 °F - 15.8 °F 19% 30.15 in 10.0 mi WSW 4.6 mph - N/A   Clear
5:05 PM 60.8 °F - 17.6 °F 19% 30.14 in 10.0 mi SE 6.9 mph - N/A   Clear
5:25 PM 60.8 °F - 17.6 °F 19% 30.15 in 10.0 mi SE 5.8 mph - N/A   Clear
5:45 PM 60.8 °F - 21.2 °F 22% 30.15 in 10.0 mi SSE 6.9 mph - N/A   Clear
6:05 PM 59.0 °F - 23.0 °F 25% 30.15 in 10.0 mi SE 8.1 mph - N/A   Clear
6:25 PM 57.2 °F - 23.0 °F 27% 30.15 in 10.0 mi SE 5.8 mph - N/A   Clear
6:45 PM 57.2 °F - 21.2 °F 25% 30.17 in 10.0 mi ESE 5.8 mph - N/A   Clear
7:05 PM 55.4 °F - 21.2 °F 26% 30.19 in 10.0 mi SE 6.9 mph - N/A   Clear
7:25 PM 53.6 °F - 21.2 °F 28% 30.17 in 10.0 mi ESE 6.9 mph - N/A   Clear
7:45 PM 53.6 °F - 21.2 °F 28% 30.18 in 10.0 mi ESE 3.5 mph - N/A   Clear
8:05 PM 51.8 °F - 21.2 °F 30% 30.18 in 10.0 mi ESE 4.6 mph - N/A   Clear
8:25 PM 51.8 °F - 21.2 °F 30% 30.20 in 10.0 mi SE 3.5 mph - N/A   Clear
8:45 PM 51.8 °F - 21.2 °F 30% 30.19 in 10.0 mi Calm Calm - N/A   Clear
9:05 PM 51.8 °F - 21.2 °F 30% 30.20 in 10.0 mi SSE 3.5 mph - N/A   Clear
9:25 PM 51.8 °F - 19.4 °F 28% 30.20 in 10.0 mi Calm Calm - N/A   Clear
9:45 PM 50.0 °F - 19.4 °F 30% 30.21 in 10.0 mi Calm Calm - N/A   Clear
10:05 PM 50.0 °F - 19.4 °F 30% 30.20 in 10.0 mi Calm Calm - N/A   Clear
10:25 PM 44.6 °F - 28.4 °F 53% 30.20 in 10.0 mi Calm Calm - N/A   Clear
10:45 PM 44.6 °F - 26.6 °F 49% 30.20 in 10.0 mi Calm Calm - N/A   Clear
11:05 PM 44.6 °F - 32.0 °F 61% 30.20 in 10.0 mi Calm Calm - N/A   Clear
11:25 PM 44.6 °F - 30.2 °F 57% 30.20 in 10.0 mi Calm Calm - N/A   Clear
11:45 PM 44.6 °F - 26.6 °F 49% 30.19 in 10.0 mi Calm Calm - N/A   Clear